Time;durP1;ratioP1;P1;durP2;ratioP2;P2;SDS_P1;SDS_P2;PMS_P1;PMS_P2;Temp;Humidity;BMP_temperature;BMP_pressure;BME280_temperature;BME280_humidity;BME280_pressure;Samples;Min_cycle;Max_cycle;Signal;HPM_P1;HPM_P2
2022/09/26 00:01:25;;;;;;;7.05;5.00;;;;;;;10.13;89.41;100932.00;5012157;28;20030;-48
2022/09/26 00:03:55;;;;;;;7.78;5.10;;;;;;;10.12;89.34;100925.00;5010315;28;20087;-47
2022/09/26 00:06:21;;;;;;;6.47;4.80;;;;;;;10.11;89.17;100931.28;5012061;28;20456;-50
2022/09/26 00:08:48;;;;;;;6.20;4.95;;;;;;;10.12;89.27;100917.03;5010204;28;20519;-49
2022/09/26 00:11:18;;;;;;;7.25;4.80;;;;;;;10.09;89.13;100908.44;5012422;28;20034;-50
2022/09/26 00:13:44;;;;;;;9.43;5.55;;;;;;;10.13;89.55;100915.25;5011994;28;20037;-49
2022/09/26 00:16:11;;;;;;;9.45;4.82;;;;;;;10.10;89.49;100907.50;5011943;28;20030;-48
2022/09/26 00:18:38;;;;;;;8.93;5.10;;;;;;;10.10;89.54;100903.03;5011650;28;20064;-48
2022/09/26 00:21:09;;;;;;;7.15;4.70;;;;;;;10.10;89.34;100907.50;5011720;28;20033;-47
2022/09/26 00:23:34;;;;;;;8.02;5.07;;;;;;;10.10;90.27;100891.59;5010387;28;20041;-49
2022/09/26 00:26:00;;;;;;;6.97;5.50;;;;;;;10.10;90.26;100891.59;5011855;28;20049;-49
2022/09/26 00:28:26;;;;;;;5.57;4.97;;;;;;;10.09;89.95;100888.09;5010277;28;20034;-47
2022/09/26 00:30:51;;;;;;;7.38;5.35;;;;;;;10.10;90.03;100887.13;5011036;28;20033;-48
2022/09/26 00:33:17;;;;;;;9.25;5.03;;;;;;;10.09;89.88;100885.44;5018758;28;20115;-47
2022/09/26 00:35:54;;;;;;;8.15;5.50;;;;;;;10.12;90.44;100873.72;5011337;28;20148;-48
2022/09/26 00:38:20;;;;;;;8.15;5.70;;;;;;;10.10;90.23;100873.84;5009651;28;20022;-48
2022/09/26 00:40:46;;;;;;;10.32;6.05;;;;;;;10.08;90.02;100870.47;5011542;28;20056;-49
2022/09/26 00:43:31;;;;;;;7.93;5.88;;;;;;;10.11;89.79;100867.59;5011162;28;20346;-47
2022/09/26 00:46:18;;;;;;;7.50;5.75;;;;;;;10.09;90.33;100866.88;5011202;28;20038;-47
2022/09/26 00:48:47;;;;;;;7.40;5.60;;;;;;;10.11;90.53;100864.09;5018223;28;20524;-47
2022/09/26 00:53:49;;;;;;;9.45;5.55;;;;;;;10.14;90.84;100867.38;5059632;23;20060;-54
2022/09/26 00:56:22;;;;;;;9.60;5.38;;;;;;;10.15;90.53;100854.94;5051302;28;20063;-51
2022/09/26 00:58:53;;;;;;;9.43;6.20;;;;;;;10.16;90.78;100846.84;5050989;28;20051;-52
2022/09/26 01:01:18;;;;;;;9.38;5.60;;;;;;;10.17;90.78;100847.69;5044671;28;20143;-49
2022/09/26 01:03:46;;;;;;;8.85;5.78;;;;;;;10.18;90.90;100830.81;5051481;28;20119;-50
2022/09/26 01:06:11;;;;;;;7.90;4.80;;;;;;;10.19;90.63;100828.06;5051497;28;20029;-49
2022/09/26 01:08:56;;;;;;;6.57;4.72;;;;;;;10.22;90.66;100826.13;5050479;28;20115;-50
2022/09/26 01:11:21;;;;;;;9.55;5.00;;;;;;;10.24;90.66;100809.13;5042330;28;20071;-49
2022/09/26 01:13:49;;;;;;;7.85;4.88;;;;;;;10.25;90.50;100812.63;5050251;28;20452;-52
2022/09/26 01:16:15;;;;;;;10.18;4.90;;;;;;;10.27;90.55;100802.72;5051255;28;20429;-51
2022/09/26 01:18:41;;;;;;;5.70;4.53;;;;;;;10.28;90.77;100801.78;5050339;28;20024;-49
2022/09/26 01:21:26;;;;;;;7.18;4.72;;;;;;;10.28;90.56;100799.13;5051490;28;20028;-51
2022/09/26 01:24:11;;;;;;;9.70;4.22;;;;;;;10.32;90.33;100800.59;5051200;28;20032;-51
2022/09/26 01:27:09;;;;;;;8.45;4.50;;;;;;;10.34;89.97;100783.59;5047938;28;20083;-53
2022/09/26 01:30:03;;;;;;;6.35;3.75;;;;;;;10.35;89.81;100776.47;5049554;28;20087;-51
2022/09/26 01:32:49;;;;;;;6.03;4.28;;;;;;;10.36;89.96;100772.88;5049461;28;20040;-52
2022/09/26 01:35:53;;;;;;;9.10;4.50;;;;;;;10.38;89.83;100757.66;5055740;28;20134;-53
2022/09/26 01:39:00;;;;;;;8.75;4.85;;;;;;;10.40;89.72;100754.88;5045413;28;20479;-54
2022/09/26 01:41:40;;;;;;;6.45;4.22;;;;;;;10.39;89.60;100747.88;5043394;28;20494;-49
2022/09/26 01:44:42;;;;;;;6.13;4.20;;;;;;;10.43;89.15;100744.88;5048505;28;20043;-53
2022/09/26 01:47:26;;;;;;;8.27;4.30;;;;;;;10.42;89.18;100744.97;5029021;28;20037;-50
2022/09/26 01:50:15;;;;;;;7.72;4.25;;;;;;;10.41;89.55;100738.84;5047185;28;20021;-53
2022/09/26 01:53:22;;;;;;;6.30;3.45;;;;;;;10.42;88.96;100724.59;5046774;28;20050;-54
2022/09/26 01:55:55;;;;;;;10.02;3.90;;;;;;;10.40;88.34;100718.56;5049308;28;20056;-52
2022/09/26 01:58:27;;;;;;;10.32;3.92;;;;;;;10.39;88.46;100705.41;5037322;28;20474;-50
2022/09/26 02:00:57;;;;;;;9.05;3.67;;;;;;;10.39;88.33;100702.75;5025520;28;20530;-49
2022/09/26 02:03:28;;;;;;;8.52;3.63;;;;;;;10.38;87.85;100706.38;5031244;28;20017;-50
2022/09/26 02:05:59;;;;;;;10.30;3.75;;;;;;;10.36;87.82;100694.06;5033047;28;20030;-52
2022/09/26 02:08:37;;;;;;;6.75;3.60;;;;;;;10.39;87.53;100692.94;5038751;28;20021;-50
2022/09/26 02:11:10;;;;;;;5.18;3.40;;;;;;;10.38;87.29;100685.13;5040599;28;20033;-50
2022/09/26 02:14:02;;;;;;;7.50;3.70;;;;;;;10.37;nan;100681.63;5042538;28;20046;-48
2022/09/26 02:16:30;;;;;;;6.75;3.28;;;;;;;10.34;86.65;100677.41;5036649;28;20068;-48
2022/09/26 02:19:01;;;;;;;6.75;3.47;;;;;;;10.34;86.91;100677.41;5031941;28;20037;-50
2022/09/26 02:21:26;;;;;;;6.47;2.92;;;;;;;10.34;86.42;100671.22;5031922;28;20033;-52
2022/09/26 02:23:53;;;;;;;8.38;3.28;;;;;;;10.33;87.02;100666.91;5031316;28;20471;-52
2022/09/26 02:26:19;;;;;;;7.78;3.50;;;;;;;10.32;86.74;100650.13;5031914;28;20482;-49
2022/09/26 02:28:45;;;;;;;8.38;3.42;;;;;;;10.33;86.61;100653.63;5032922;28;20263;-52
2022/09/26 02:31:14;;;;;;;9.20;3.30;;;;;;;10.32;86.49;100659.91;5033288;28;20113;-53
2022/09/26 02:33:39;;;;;;;6.00;3.10;;;;;;;10.32;86.40;100657.25;5032294;28;20029;-52
2022/09/26 02:36:09;;;;;;;7.63;3.28;;;;;;;10.32;86.50;100649.28;5044592;28;20037;-52
2022/09/26 02:38:36;;;;;;;10.45;3.75;;;;;;;10.32;85.83;100643.97;5033079;28;20159;-50
2022/09/26 02:41:03;;;;;;;6.05;3.00;;;;;;;10.30;85.66;100635.25;5039202;28;20603;-49
2022/09/26 02:43:56;;;;;;;9.27;3.28;;;;;;;10.31;85.99;100640.44;5034485;28;20479;-52
2022/09/26 02:46:56;;;;;;;5.85;3.22;;;;;;;10.32;85.82;100643.97;5027117;28;20033;-53
2022/09/26 02:49:24;;;;;;;;;;;;;;;10.38;85.41;100634.69;5025623;28;20123;-53
2022/09/26 02:52:32;;;;;;;7.43;3.00;;;;;;;10.33;85.27;100624.44;5036714;28;19940;-49
2022/09/26 02:55:25;;;;;;;6.95;2.80;;;;;;;10.33;85.01;100621.78;5039278;28;20112;-51
2022/09/26 02:57:53;;;;;;;5.38;2.95;;;;;;;10.29;84.95;100610.53;5036405;28;20041;-49
2022/09/26 03:00:31;;;;;;;4.55;2.90;;;;;;;10.29;84.75;100613.19;5041865;28;20037;-51
2022/09/26 03:03:11;;;;;;;6.45;2.97;;;;;;;10.28;84.58;100603.53;5041595;28;20025;-51
2022/09/26 03:05:39;;;;;;;5.00;2.85;;;;;;;10.28;84.57;100594.72;5041213;28;20180;-50
2022/09/26 03:08:16;;;;;;;4.63;2.70;;;;;;;10.30;84.16;100598.94;5043577;28;20386;-51
2022/09/26 03:10:44;;;;;;;8.43;2.55;;;;;;;10.28;84.50;100595.56;5037017;28;20424;-49
2022/09/26 03:13:12;;;;;;;8.25;2.80;;;;;;;10.28;84.30;100592.91;5037087;28;20030;-50
2022/09/26 03:15:40;;;;;;;7.10;3.00;;;;;;;10.28;84.10;100592.91;5037148;28;20029;-51
2022/09/26 03:18:11;;;;;;;9.20;2.93;;;;;;;10.29;84.38;100585.78;5036052;28;20025;-50
2022/09/26 03:20:37;;;;;;;7.40;2.92;;;;;;;10.30;84.90;100577.69;5026326;28;20030;-52
2022/09/26 03:23:03;;;;;;;8.00;2.90;;;;;;;10.29;84.76;100575.16;5036717;28;20086;-51
2022/09/26 03:25:28;;;;;;;7.28;2.90;;;;;;;10.30;84.19;100576.84;5036781;28;20055;-50
2022/09/26 03:27:54;;;;;;;10.43;3.00;;;;;;;10.29;84.29;100565.41;5036845;28;20084;-51
2022/09/26 03:30:21;;;;;;;5.88;2.90;;;;;;;10.29;84.07;100564.53;5037000;28;20475;-51
2022/09/26 03:32:47;;;;;;;5.95;2.95;;;;;;;10.29;83.94;100568.06;5043791;28;20022;-51
2022/09/26 03:35:13;;;;;;;6.38;3.00;;;;;;;10.28;83.94;100558.41;5046857;28;20040;-51
2022/09/26 03:37:39;;;;;;;4.35;3.03;;;;;;;10.27;84.42;100554.03;5060312;28;20045;-51
2022/09/26 03:40:07;;;;;;;6.53;2.70;;;;;;;10.28;83.79;100546.94;5044220;28;20041;-51
2022/09/26 03:42:33;;;;;;;5.85;2.75;;;;;;;10.28;84.19;100537.16;5034205;28;20488;-52
2022/09/26 03:44:59;;;;;;;6.15;2.80;;;;;;;10.27;84.35;100527.50;5044258;28;20237;-54
2022/09/26 03:47:25;;;;;;;5.38;2.63;;;;;;;10.27;84.58;100537.28;5048972;28;20014;-49
2022/09/26 03:49:51;;;;;;;13.63;3.08;;;;;;;10.26;84.22;100533.78;5049742;28;20035;-52
2022/09/26 03:52:16;;;;;;;5.57;2.95;;;;;;;10.25;85.15;100531.25;5029106;28;20037;-52
2022/09/26 03:54:41;;;;;;;5.20;2.78;;;;;;;10.24;85.48;100524.25;5048944;28;20123;-52
2022/09/26 03:57:09;;;;;;;8.27;2.80;;;;;;;10.23;85.38;100522.59;5040094;28;20438;-50
2022/09/26 03:59:34;;;;;;;7.38;2.78;;;;;;;10.22;85.48;100510.28;5041096;28;20079;-53
2022/09/26 04:01:59;;;;;;;7.18;2.95;;;;;;;10.23;85.89;100506.66;5033319;28;20112;-52
2022/09/26 04:04:25;;;;;;;6.97;3.30;;;;;;;10.22;86.28;100502.31;5032126;28;20022;-50
2022/09/26 04:06:50;;;;;;;4.32;2.88;;;;;;;10.19;86.04;100501.59;5052685;28;20093;-52
2022/09/26 04:09:16;;;;;;;6.10;2.97;;;;;;;10.18;86.64;100497.25;5044359;28;20044;-52
2022/09/26 04:11:42;;;;;;;6.22;2.80;;;;;;;10.17;86.72;100492.06;5046373;28;20317;-52
2022/09/26 04:14:08;;;;;;;9.52;3.22;;;;;;;10.17;87.07;100484.94;5041506;28;20025;-53
2022/09/26 04:16:35;;;;;;;6.55;2.90;;;;;;;10.16;86.86;100477.13;5045028;28;20025;-53
2022/09/26 04:19:01;;;;;;;8.50;2.85;;;;;;;10.13;86.50;100470.22;5045797;28;20025;-53
2022/09/26 04:21:27;;;;;;;10.23;3.35;;;;;;;10.14;87.05;100460.44;5047321;28;20028;-54
2022/09/26 04:23:53;;;;;;;8.75;2.80;;;;;;;10.12;86.97;100460.56;5044536;28;20061;-53
2022/09/26 04:26:19;;;;;;;6.75;2.92;;;;;;;10.13;87.57;100454.31;5044051;28;20406;-49
2022/09/26 04:28:46;;;;;;;6.82;2.80;;;;;;;10.11;87.44;100448.28;5042093;28;20037;-49
2022/09/26 04:31:12;;;;;;;5.60;2.72;;;;;;;10.12;86.99;100446.47;5047127;28;20021;-53
2022/09/26 04:33:41;;;;;;;3.95;2.47;;;;;;;10.11;87.04;100440.31;5040174;28;20110;-53
2022/09/26 04:36:12;;;;;;;8.85;3.30;;;;;;;10.11;87.26;100440.31;5033994;28;20395;-53
2022/09/26 04:38:38;;;;;;;10.15;3.30;;;;;;;10.09;86.88;100439.63;5033516;28;20027;-53
2022/09/26 04:41:07;;;;;;;8.73;3.00;;;;;;;10.10;86.66;100427.19;5036640;28;20017;-51
2022/09/26 04:43:33;;;;;;;4.35;2.33;;;;;;;10.09;87.00;100413.09;5032823;28;20041;-51
2022/09/26 04:45:59;;;;;;;5.25;2.55;;;;;;;10.09;86.81;100404.25;5045605;28;20028;-54
2022/09/26 04:48:24;;;;;;;6.32;2.70;;;;;;;10.07;86.60;100391.13;5033915;28;20029;-52
2022/09/26 04:50:50;;;;;;;8.20;2.40;;;;;;;10.08;87.34;100389.31;5032289;28;20475;-51
2022/09/26 04:53:16;;;;;;;4.35;2.33;;;;;;;10.07;86.74;100391.13;5031627;28;20041;-49
2022/09/26 04:55:44;;;;;;;7.55;2.92;;;;;;;10.06;87.64;100384.13;5038479;28;20048;-53
2022/09/26 04:58:09;;;;;;;9.20;2.80;;;;;;;10.06;87.45;100375.31;5034625;28;20030;-52
2022/09/26 05:00:35;;;;;;;8.38;2.83;;;;;;;10.05;87.72;100369.19;5034698;28;20431;-50
2022/09/26 05:03:00;;;;;;;3.75;2.40;;;;;;;10.03;87.55;100360.50;5031067;28;20030;-53
2022/09/26 05:05:29;;;;;;;9.40;3.13;;;;;;;10.02;87.86;100360.63;5031686;28;20053;-49
2022/09/26 05:07:55;;;;;;;7.88;3.17;;;;;;;10.02;88.04;100358.81;5033543;28;20031;-53
2022/09/26 05:10:21;;;;;;;8.18;3.17;;;;;;;10.02;87.69;100360.63;5035197;28;20026;-53
2022/09/26 05:12:46;;;;;;;6.85;2.92;;;;;;;10.02;87.91;100352.66;5033091;28;20083;-52
2022/09/26 05:15:12;;;;;;;5.63;2.92;;;;;;;10.02;88.34;100334.09;5032616;28;20021;-52
2022/09/26 05:17:37;;;;;;;6.65;3.03;;;;;;;10.00;88.59;100320.97;5030239;28;20369;-52
2022/09/26 05:20:07;;;;;;;10.60;3.33;;;;;;;9.99;88.80;100328.09;5031197;28;20475;-48
2022/09/26 05:22:33;;;;;;;5.93;3.17;;;;;;;10.00;89.01;100340.34;5032776;28;20029;-51
2022/09/26 05:27:42;;;;;;;10.63;3.70;;;;;;;10.00;89.07;100321.78;5036444;28;20040;-53
2022/09/26 05:30:08;;;;;;;9.02;3.83;;;;;;;9.99;89.29;100320.13;5032382;28;20025;-52
2022/09/26 05:32:33;;;;;;;7.32;3.70;;;;;;;9.99;89.08;100316.59;5043610;28;20102;-52
2022/09/26 05:34:59;;;;;;;12.00;3.42;;;;;;;9.99;88.72;100311.31;5042224;28;20498;-52
2022/09/26 05:37:24;;;;;;;7.30;3.80;;;;;;;9.97;88.93;100313.25;5042047;28;20029;-52
2022/09/26 05:42:33;;;;;;;7.07;4.07;;;;;;;9.96;89.50;100315.06;5031901;28;20107;-52
2022/09/26 05:45:02;;;;;;;11.30;3.75;;;;;;;9.97;89.38;100315.91;5043946;28;20029;-51
2022/09/26 05:47:31;;;;;;;13.93;3.67;;;;;;;9.97;89.17;100310.59;5038013;28;20490;-50
2022/09/26 05:49:56;;;;;;;10.43;4.30;;;;;;;9.97;89.33;100310.59;5030318;28;20549;-50
2022/09/26 05:52:21;;;;;;;7.75;4.53;;;;;;;9.96;89.51;100304.44;5029614;28;20049;-52
2022/09/26 05:54:47;;;;;;;8.82;3.85;;;;;;;9.95;89.69;100308.06;5030002;28;20029;-51
2022/09/26 05:57:12;;;;;;;6.38;3.95;;;;;;;9.95;89.63;100301.94;5022535;28;20084;-51
2022/09/26 05:59:37;;;;;;;11.02;4.70;;;;;;;9.95;90.02;100297.44;5030982;28;20498;-50
2022/09/26 06:02:04;;;;;;;7.68;4.20;;;;;;;9.95;89.77;100304.56;5028950;28;20068;-49
2022/09/26 06:04:30;;;;;;;10.55;3.95;;;;;;;9.94;89.93;100295.78;5030560;28;20017;-51
2022/09/26 06:06:55;;;;;;;9.07;4.00;;;;;;;9.95;90.79;100291.31;5029451;28;20087;-52
2022/09/26 06:09:21;;;;;;;7.43;3.90;;;;;;;9.95;90.27;100281.53;5018283;28;20053;-49
2022/09/26 06:11:47;;;;;;;7.13;4.03;;;;;;;9.96;91.07;100277.09;5023018;28;20049;-47
2022/09/26 06:14:12;;;;;;;8.60;4.30;;;;;;;9.96;91.49;100267.31;5029345;28;20045;-47
2022/09/26 06:16:38;;;;;;;5.85;3.60;;;;;;;9.97;90.87;100265.50;5031644;28;20029;-50
2022/09/26 06:19:03;;;;;;;8.43;3.80;;;;;;;9.97;90.93;100246.91;5026121;28;20124;-48
2022/09/26 06:21:28;;;;;;;11.13;4.05;;;;;;;9.99;90.73;100245.84;5028012;28;20037;-47
2022/09/26 06:23:54;;;;;;;8.63;3.92;;;;;;;9.99;90.53;100237.00;5025870;28;20056;-50
2022/09/26 06:26:22;;;;;;;8.13;4.30;;;;;;;9.99;91.13;100223.75;5028158;28;20026;-48
2022/09/26 06:28:52;;;;;;;8.05;3.55;;;;;;;10.02;90.70;100222.66;5029539;28;20690;-50
2022/09/26 06:31:17;;;;;;;5.50;3.33;;;;;;;10.02;90.33;100218.19;5029787;28;20064;-51
2022/09/26 06:33:43;;;;;;;8.20;3.35;;;;;;;10.03;89.89;100208.44;5028495;28;20170;-49
2022/09/26 06:36:10;;;;;;;10.50;3.63;;;;;;;10.03;90.35;100198.66;5028368;28;20056;-47
2022/09/26 06:38:37;;;;;;;8.93;3.60;;;;;;;10.06;90.18;100206.38;5027069;28;20550;-49
2022/09/26 06:41:03;;;;;;;8.40;3.40;;;;;;;10.07;89.99;100194.75;5030509;28;20434;-49
2022/09/26 06:43:28;;;;;;;8.10;3.08;;;;;;;10.09;90.02;100191.97;5032620;28;20056;-51
2022/09/26 06:45:53;;;;;;;6.07;2.75;;;;;;;10.11;90.29;100184.75;5029401;28;20036;-50
2022/09/26 06:48:23;;;;;;;5.72;2.80;;;;;;;10.13;90.19;100175.69;5030199;28;20044;-48
2022/09/26 06:50:59;;;;;;;9.75;2.92;;;;;;;10.16;90.61;100164.81;5029655;28;20501;-50
2022/09/26 06:53:25;;;;;;;5.97;2.95;;;;;;;10.19;90.52;100167.19;5032431;28;20037;-52
2022/09/26 06:55:50;;;;;;;6.13;2.88;;;;;;;10.21;90.09;100158.25;5027605;28;20021;-49
2022/09/26 06:58:15;;;;;;;5.20;2.80;;;;;;;10.23;89.71;100162.47;5031235;28;20041;-51
2022/09/26 07:00:41;;;;;;;6.28;2.40;;;;;;;10.24;89.79;100144.72;5027611;28;20025;-52
2022/09/26 07:03:07;;;;;;;7.03;2.42;;;;;;;10.25;89.37;100155.19;5027146;28;20041;-50
2022/09/26 07:05:33;;;;;;;6.45;2.90;;;;;;;10.28;89.46;100156.75;5028331;28;20040;-51
2022/09/26 07:07:59;;;;;;;7.22;2.45;;;;;;;10.30;89.17;100133.56;5030628;28;20383;-50
2022/09/26 07:10:25;;;;;;;6.30;2.70;;;;;;;10.32;89.16;100132.47;5030761;28;20042;-47
2022/09/26 07:12:51;;;;;;;5.78;2.58;;;;;;;10.36;89.20;100117.16;5029752;28;20103;-48
2022/09/26 07:15:18;;;;;;;4.22;2.30;;;;;;;10.38;88.89;100120.50;5027061;28;20041;-51
2022/09/26 07:17:46;;;;;;;5.15;2.30;;;;;;;10.40;88.98;100113.25;5030606;28;20037;-52
2022/09/26 07:20:15;;;;;;;4.75;2.17;;;;;;;10.41;89.25;100106.09;5027379;28;20069;-49
2022/09/26 07:22:44;;;;;;;4.07;2.23;;;;;;;10.44;88.56;100106.72;5026672;28;20052;-50
2022/09/26 07:25:10;;;;;;;;;;;;;;;10.50;88.37;100113.28;5024991;28;20041;-48
2022/09/26 07:27:36;;;;;;;4.38;2.30;;;;;;;10.47;89.02;100109.06;5028240;28;19952;-49
2022/09/26 07:30:03;;;;;;;4.30;2.13;;;;;;;10.47;88.27;100093.13;5028398;28;20449;-47
2022/09/26 07:32:32;;;;;;;7.57;2.40;;;;;;;10.50;88.40;100102.66;5028883;28;20590;-47
2022/09/26 07:35:02;;;;;;;4.10;2.42;;;;;;;10.52;88.38;100090.09;5022225;28;20032;-50
2022/09/26 07:37:28;;;;;;;5.95;2.60;;;;;;;10.53;88.04;100105.06;5013019;28;20542;-49
2022/09/26 07:39:54;;;;;;;5.57;2.63;;;;;;;10.57;88.36;100097.66;5024110;28;20627;-49
2022/09/26 07:42:20;;;;;;;7.35;2.80;;;;;;;10.59;88.00;100096.56;5029512;28;20108;-50
2022/09/26 07:44:45;;;;;;;3.60;2.60;;;;;;;10.60;88.55;100092.06;5028227;28;20116;-49
2022/09/26 07:50:10;;;;;;;4.55;2.42;;;;;;;10.64;88.08;100088.16;5029575;28;20403;-49
2022/09/26 07:52:36;;;;;;;4.70;2.40;;;;;;;10.65;87.86;100085.34;5029937;28;20041;-46
2022/09/26 07:55:02;;;;;;;3.92;2.17;;;;;;;10.68;87.71;100084.25;5032540;28;20075;-50
2022/09/26 07:57:31;;;;;;;8.52;2.90;;;;;;;10.72;88.62;100077.69;5029230;28;20500;-48
2022/09/26 07:59:57;;;;;;;5.55;2.55;;;;;;;10.73;88.01;100080.19;5031107;28;20022;-48
2022/09/26 08:02:24;;;;;;;5.95;2.60;;;;;;;10.76;87.89;100071.13;5030066;28;20029;-47
2022/09/26 08:04:50;;;;;;;6.63;2.83;;;;;;;10.79;88.15;100070.88;5026817;28;20033;-47
2022/09/26 08:07:15;;;;;;;5.28;2.47;;;;;;;10.83;87.81;100066.09;5029633;28;20107;-47
2022/09/26 08:09:41;;;;;;;6.18;2.40;;;;;;;10.85;87.15;100064.16;5031298;28;20021;-47
2022/09/26 08:12:06;;;;;;;7.30;2.47;;;;;;;10.87;87.72;100065.66;5027604;28;20396;-47
2022/09/26 08:14:32;;;;;;;5.25;2.58;;;;;;;10.89;87.37;100049.59;5026020;28;20028;-47
2022/09/26 08:16:57;;;;;;;7.18;2.63;;;;;;;10.91;87.93;100048.50;5030987;28;20106;-47
2022/09/26 08:19:23;;;;;;;4.85;2.88;;;;;;;10.95;87.32;100056.19;5032463;28;20471;-47
2022/09/26 08:21:48;;;;;;;8.15;2.70;;;;;;;10.97;87.30;100055.06;5032627;28;20030;-48
2022/09/26 08:24:14;;;;;;;7.00;2.70;;;;;;;10.97;87.48;100060.38;5032377;28;20440;-47
2022/09/26 08:26:39;;;;;;;10.43;2.63;;;;;;;10.98;87.04;100054.09;5031414;28;20096;-47
2022/09/26 08:29:10;;;;;;;8.90;2.70;;;;;;;10.97;87.82;100057.72;5032706;28;20029;-47
2022/09/26 08:31:37;;;;;;;7.38;2.50;;;;;;;10.99;87.61;100053.13;5025584;28;20041;-49
2022/09/26 08:34:02;;;;;;;7.90;2.95;;;;;;;10.99;87.20;100053.13;5031234;28;20017;-51
2022/09/26 08:36:27;;;;;;;4.45;2.33;;;;;;;11.00;87.15;100038.84;5038246;28;20025;-48
2022/09/26 08:38:53;;;;;;;8.23;2.67;;;;;;;11.01;88.22;100043.19;5032136;28;20021;-48
2022/09/26 08:41:43;;;;;;;4.95;2.42;;;;;;;11.04;87.86;100045.56;5028389;28;20039;-49
2022/09/26 08:44:27;;;;;;;6.50;2.47;;;;;;;11.06;87.74;100038.28;5029753;28;20414;-48
2022/09/26 08:47:27;;;;;;;6.57;2.40;;;;;;;11.09;88.36;100032.69;5030219;28;20041;-50
2022/09/26 08:50:18;;;;;;;6.20;2.40;;;;;;;11.14;88.17;100037.59;5021948;28;20053;-50
2022/09/26 08:53:08;;;;;;;5.05;2.47;;;;;;;11.15;87.96;100027.78;5026354;28;20065;-51
2022/09/26 08:55:41;;;;;;;7.75;2.75;;;;;;;11.19;87.60;100027.38;5030751;28;20042;-49
2022/09/26 08:58:31;;;;;;;5.55;2.30;;;;;;;11.23;87.04;100020.78;5030682;28;20025;-49
2022/09/26 09:01:05;;;;;;;;;;;;;;;11.31;86.99;100025.41;5024405;28;20041;-46
2022/09/26 09:03:37;;;;;;;4.68;2.60;;;;;;;11.28;87.89;100031.00;5037146;28;19913;-48
2022/09/26 09:06:12;;;;;;;7.55;2.55;;;;;;;11.29;87.08;100030.84;5028154;28;20683;-48
2022/09/26 09:08:41;;;;;;;6.35;2.42;;;;;;;11.34;88.26;100021.59;5033263;28;20083;-48
2022/09/26 09:11:15;;;;;;;6.80;2.47;;;;;;;11.34;88.11;100014.47;5014788;28;20124;-47
2022/09/26 09:14:05;;;;;;;8.70;2.65;;;;;;;11.36;88.55;100016.97;5025282;28;20090;-48
2022/09/26 09:16:53;;;;;;;8.32;2.60;;;;;;;11.41;88.25;100006.78;5028017;28;20033;-51
2022/09/26 09:19:27;;;;;;;5.05;2.60;;;;;;;11.41;90.35;100002.28;5027455;28;20462;-50
2022/09/26 09:22:25;;;;;;;6.82;2.97;;;;;;;11.44;90.75;99999.34;5028565;28;20029;-52
2022/09/26 09:25:08;;;;;;;7.43;3.15;;;;;;;11.51;90.94;99998.75;5031245;28;20501;-50
2022/09/26 09:27:49;;;;;;;11.25;3.00;;;;;;;11.50;91.02;99981.94;5028091;28;20104;-51
2022/09/26 09:30:24;;;;;;;8.88;3.17;;;;;;;11.52;91.59;99990.63;5028797;28;20132;-51
2022/09/26 09:33:05;;;;;;;6.10;2.90;;;;;;;11.52;92.18;99979.16;5029784;28;20113;-47
2022/09/26 09:35:30;;;;;;;11.80;3.05;;;;;;;11.52;93.11;99974.66;5028953;28;20393;-50
2022/09/26 09:37:56;;;;;;;6.00;3.13;;;;;;;11.53;93.01;99979.00;5030170;28;20032;-47
2022/09/26 09:40:25;;;;;;;9.52;2.95;;;;;;;11.53;93.85;99965.72;5028540;28;20264;-48
2022/09/26 09:42:59;;;;;;;6.20;3.28;;;;;;;11.53;93.28;99963.06;5027298;28;20037;-48
2022/09/26 09:45:32;;;;;;;9.43;3.50;;;;;;;11.55;94.35;99950.44;5027162;28;20029;-49
2022/09/26 09:47:57;;;;;;;9.82;3.30;;;;;;;11.57;94.23;99943.16;5034674;28;20078;-52
2022/09/26 09:50:34;;;;;;;8.77;4.32;;;;;;;11.56;94.18;99946.81;5040991;28;20475;-51
2022/09/26 09:53:21;;;;;;;7.22;3.20;;;;;;;11.58;94.54;99941.34;5029607;28;20065;-52
2022/09/26 09:56:01;;;;;;;8.73;3.30;;;;;;;11.57;94.34;99929.03;5035847;28;20100;-52
2022/09/26 09:58:45;;;;;;;5.65;3.03;;;;;;;11.58;94.22;99922.72;5033771;28;20029;-52
2022/09/26 10:01:38;;;;;;;5.95;2.95;;;;;;;11.59;95.18;99909.28;5028825;28;20387;-51
2022/09/26 10:04:28;;;;;;;12.32;3.20;;;;;;;11.60;95.14;99910.13;5026270;28;20092;-52
2022/09/26 10:06:54;;;;;;;8.13;3.55;;;;;;;11.65;95.51;99910.50;5028087;28;20029;-53
2022/09/26 10:09:28;;;;;;;9.85;2.95;;;;;;;11.67;95.48;99913.84;5025792;28;20037;-55
2022/09/26 10:11:53;;;;;;;6.95;3.05;;;;;;;11.70;94.89;99907.41;5031838;28;20057;-51
2022/09/26 10:14:34;;;;;;;8.27;3.63;;;;;;;11.72;95.43;99900.13;5029381;28;20510;-52
2022/09/26 10:17:09;;;;;;;8.50;3.22;;;;;;;11.76;95.65;99891.69;5019436;28;20064;-52
2022/09/26 10:19:36;;;;;;;7.50;3.17;;;;;;;11.80;96.15;99900.22;5034782;28;20363;-52
2022/09/26 10:22:08;;;;;;;8.55;3.30;;;;;;;11.83;95.68;99895.44;5030687;28;20068;-53
2022/09/26 10:24:39;;;;;;;5.65;3.20;;;;;;;11.81;95.10;99894.75;5025651;28;20040;-50
2022/09/26 10:27:23;;;;;;;4.50;2.90;;;;;;;11.84;95.50;99888.31;5031552;28;20064;-52
2022/09/26 10:30:00;;;;;;;10.20;3.53;;;;;;;11.79;95.39;99880.75;5024616;28;20487;-53
2022/09/26 10:32:29;;;;;;;8.43;3.08;;;;;;;11.76;95.05;99881.06;5026345;28;20037;-53
2022/09/26 10:35:24;;;;;;;7.30;3.00;;;;;;;11.78;95.06;99880.91;5025595;28;20459;-52
2022/09/26 10:38:06;;;;;;;6.95;3.28;;;;;;;11.77;95.75;99860.59;5023031;28;20148;-53
2022/09/26 10:40:47;;;;;;;6.65;3.38;;;;;;;11.74;95.76;99871.53;5027582;28;20059;-51
2022/09/26 10:43:32;;;;;;;7.15;3.03;;;;;;;11.79;96.08;99869.25;5023807;28;20565;-49
2022/09/26 10:46:13;;;;;;;7.15;3.08;;;;;;;11.75;95.18;99874.06;5026679;28;20099;-50
2022/09/26 10:48:50;;;;;;;4.85;3.10;;;;;;;11.77;96.47;99863.25;5026168;28;20021;-52
2022/09/26 10:51:28;;;;;;;5.68;3.25;;;;;;;11.75;96.01;99862.59;5024957;28;20030;-53
2022/09/26 10:54:10;;;;;;;7.63;3.20;;;;;;;11.77;96.52;99861.44;5026725;28;20502;-50
2022/09/26 10:56:46;;;;;;;5.43;3.33;;;;;;;11.77;95.70;99856.09;5017321;28;20331;-51
2022/09/26 10:59:14;;;;;;;11.80;3.70;;;;;;;11.75;95.96;99851.94;5026402;28;20103;-54
2022/09/26 11:01:44;;;;;;;7.20;3.40;;;;;;;11.73;95.01;99853.91;5026137;28;20040;-52
2022/09/26 11:07:06;;;;;;;9.00;3.35;;;;;;;11.70;95.41;99855.03;5025714;28;20394;-51
2022/09/26 11:09:32;;;;;;;7.75;3.85;;;;;;;11.72;96.55;99853.06;5025853;28;20072;-53
2022/09/26 11:11:57;;;;;;;6.93;3.42;;;;;;;11.75;96.68;99846.63;5027498;28;20079;-52
2022/09/26 11:14:29;;;;;;;6.55;3.35;;;;;;;11.72;96.78;99845.09;5028958;28;20475;-53
2022/09/26 11:16:55;;;;;;;5.45;3.78;;;;;;;11.71;97.45;99830.13;5031857;28;20037;-52
2022/09/26 11:19:32;;;;;;;8.20;3.40;;;;;;;11.72;97.34;99836.28;5030469;28;20021;-53
2022/09/26 11:22:09;;;;;;;8.75;3.38;;;;;;;11.71;97.45;99829.25;5033016;28;20041;-54
2022/09/26 11:24:50;;;;;;;7.97;3.40;;;;;;;11.71;97.66;99838.09;5030970;28;20280;-54
2022/09/26 11:27:29;;;;;;;7.25;3.42;;;;;;;11.70;97.70;99827.63;5031546;28;20530;-53
2022/09/26 11:30:02;;;;;;;8.20;3.53;;;;;;;11.68;97.92;99833.09;5040535;28;20025;-51
2022/09/26 11:32:31;;;;;;;6.18;3.08;;;;;;;11.64;97.17;99823.72;5037109;28;20125;-52
2022/09/26 11:35:01;;;;;;;6.25;3.08;;;;;;;11.62;97.44;99821.22;5027291;28;20030;-54
2022/09/26 11:37:54;;;;;;;3.97;3.00;;;;;;;11.63;98.30;99819.41;5033013;28;20390;-51
2022/09/26 11:40:37;;;;;;;9.52;3.33;;;;;;;11.61;98.23;99818.72;5032124;28;20041;-53
2022/09/26 11:43:03;;;;;;;5.10;3.00;;;;;;;11.60;98.13;99814.38;5019974;28;20041;-53
2022/09/26 11:45:54;;;;;;;6.88;3.00;;;;;;;11.59;97.98;99818.88;5030916;28;20025;-54
2022/09/26 11:48:25;;;;;;;5.55;3.10;;;;;;;11.57;98.58;99806.69;5032060;28;20475;-52
2022/09/26 11:51:06;;;;;;;5.78;3.10;;;;;;;11.57;98.64;99812.84;5020284;28;20044;-53
2022/09/26 11:53:44;;;;;;;8.23;3.15;;;;;;;11.57;99.06;99810.16;5032692;28;20092;-52
2022/09/26 11:56:35;;;;;;;5.53;3.13;;;;;;;11.59;99.23;99810.03;5037270;28;20040;-50
2022/09/26 11:59:01;;;;;;;4.20;2.70;;;;;;;11.59;99.36;99808.22;5019581;28;20085;-52
2022/09/26 12:02:14;;;;;;;5.35;2.80;;;;;;;11.61;99.02;99805.41;5030933;28;20064;-51